Terminal Aerodrome Forecast
Issued by NWS

Home | Current Version | Previous Version | Text Only | Print | Product List | Glossary Off
Versions: 1 2 3 4 5 6 7 8 9 10 11 12 13 14 15 16 17 18 19

520
FTUS43 KFGF 261109 AAB
TAFBJI
TAF AMD
KBJI 261109Z 2611/2706 29018KT P6SM OVC150
      TEMPO 2612/2616 OVC040
     FM270100 30015KT P6SM SCT080=

USA.gov is the U.S. government's official web portal to all federal, state and local government web resources and services.